Time;durP1;ratioP1;P1;durP2;ratioP2;P2;SDS_P1;SDS_P2;PMS_P1;PMS_P2;Temp;Humidity;BMP_temperature;BMP_pressure;BME280_temperature;BME280_humidity;BME280_pressure;Samples;Min_cycle;Max_cycle;Signal;HPM_P1;HPM_P2
2021/08/08 00:02:21;;;;;;;4.68;3.50;;;;;;;17.09;100.00;99729.41;5021963;28;20402;-84
2021/08/08 00:04:48;;;;;;;5.15;3.55;;;;;;;17.10;100.00;99727.59;5012999;28;20052;-84
2021/08/08 00:07:16;;;;;;;4.97;3.65;;;;;;;17.02;100.00;99732.53;5029149;28;20126;-83
2021/08/08 00:09:44;;;;;;;5.90;3.67;;;;;;;16.98;100.00;99723.84;5017316;28;20053;-83
2021/08/08 00:12:11;;;;;;;5.25;4.25;;;;;;;17.02;100.00;99725.41;5011010;28;20463;-84
2021/08/08 00:14:37;;;;;;;6.18;4.60;;;;;;;17.00;100.00;99737.13;5010358;28;20048;-84
2021/08/08 00:17:05;;;;;;;4.13;3.72;;;;;;;16.86;100.00;99735.28;5000169;28;20168;-84
2021/08/08 00:19:32;;;;;;;4.70;3.90;;;;;;;16.83;100.00;99735.50;5013060;28;20433;-83
2021/08/08 00:21:59;;;;;;;5.35;4.13;;;;;;;16.82;100.00;99731.09;5007803;28;20179;-83
2021/08/08 00:24:26;;;;;;;5.60;4.50;;;;;;;16.85;100.00;99729.09;5023951;28;20041;-83
2021/08/08 00:26:52;;;;;;;5.65;4.40;;;;;;;16.88;100.00;99733.38;5031547;28;20045;-83
2021/08/08 00:29:19;;;;;;;5.15;4.10;;;;;;;16.77;100.00;99733.19;5011817;28;20045;-83
2021/08/08 00:31:46;;;;;;;4.88;4.30;;;;;;;16.68;100.00;99731.03;5018686;28;20040;-84
2021/08/08 00:34:13;;;;;;;5.15;4.30;;;;;;;16.66;100.00;99727.63;5022515;28;20072;-84
2021/08/08 00:36:39;;;;;;;6.45;4.30;;;;;;;16.67;100.00;99737.34;5029163;28;20498;-83
2021/08/08 00:39:06;;;;;;;5.43;4.20;;;;;;;16.61;100.00;99736.75;5011968;28;20041;-83
2021/08/08 00:41:33;;;;;;;4.50;4.10;;;;;;;16.63;100.00;99730.44;5010581;28;20045;-83
2021/08/08 00:43:59;;;;;;;4.82;4.30;;;;;;;16.56;100.00;99722.84;5017538;28;20082;-83
2021/08/08 00:46:26;;;;;;;5.13;4.13;;;;;;;16.53;100.00;99727.47;5016841;28;20052;-83
2021/08/08 00:48:53;;;;;;;5.65;4.20;;;;;;;16.48;100.00;99725.09;5034499;28;20049;-83
2021/08/08 00:51:20;;;;;;;6.45;4.65;;;;;;;16.51;100.00;99729.38;5030746;28;20107;-84
2021/08/08 00:53:46;;;;;;;6.32;4.50;;;;;;;16.54;100.00;99738.06;5014705;28;20041;-83
2021/08/08 00:56:15;;;;;;;6.10;4.80;;;;;;;16.51;100.00;99740.06;5017080;28;20401;-83
2021/08/08 00:58:42;;;;;;;5.05;4.55;;;;;;;16.47;100.00;99743.84;5018100;28;20052;-83
2021/08/08 01:01:11;;;;;;;6.95;4.45;;;;;;;16.47;100.00;99746.50;5012939;28;20045;-83
2021/08/08 01:03:40;;;;;;;6.07;4.40;;;;;;;16.45;100.00;99754.59;5014661;28;20047;-84
2021/08/08 01:06:16;;;;;;;6.60;4.97;;;;;;;16.47;100.00;99762.50;5016574;28;20047;-84
2021/08/08 01:08:45;;;;;;;7.28;5.03;;;;;;;16.50;100.00;99752.53;5018465;28;20453;-83
2021/08/08 01:11:12;;;;;;;7.53;5.25;;;;;;;16.43;100.00;99753.84;5032057;28;20051;-83
2021/08/08 01:13:40;;;;;;;6.00;4.53;;;;;;;16.46;100.00;99747.44;5031025;28;20045;-84
2021/08/08 01:16:08;;;;;;;5.40;4.40;;;;;;;16.44;100.00;99752.03;5013435;28;20045;-84
2021/08/08 01:18:34;;;;;;;5.18;4.40;;;;;;;16.46;100.00;99758.13;5031593;28;20060;-84
2021/08/08 01:21:01;;;;;;;7.28;4.45;;;;;;;16.41;100.00;99750.41;5029661;28;20052;-84
2021/08/08 01:23:32;;;;;;;4.68;4.28;;;;;;;16.43;100.00;99747.66;5026532;28;20049;-84
2021/08/08 01:26:03;;;;;;;5.95;4.72;;;;;;;16.41;100.00;99747.75;5028662;28;20037;-83
2021/08/08 01:28:37;;;;;;;5.72;5.00;;;;;;;16.42;100.00;99732.59;5052876;28;20037;-84
2021/08/08 01:31:10;;;;;;;5.88;4.72;;;;;;;16.39;100.00;99728.28;5024717;28;20045;-85
2021/08/08 01:33:36;;;;;;;6.53;5.38;;;;;;;16.37;100.00;99734.66;5038519;28;20037;-83
2021/08/08 01:36:03;;;;;;;5.30;4.57;;;;;;;16.36;100.00;99731.16;5051260;28;20037;-84
2021/08/08 01:38:33;;;;;;;5.65;4.47;;;;;;;16.37;100.00;99732.00;5053031;28;20041;-84
2021/08/08 01:41:04;;;;;;;5.38;4.80;;;;;;;16.35;100.00;99734.75;5055693;28;20032;-84
2021/08/08 01:43:32;;;;;;;4.93;3.97;;;;;;;16.31;100.00;99738.53;5054886;28;20045;-83
2021/08/08 01:46:05;;;;;;;6.32;4.68;;;;;;;16.23;100.00;99739.03;5041710;28;20033;-83
2021/08/08 01:48:33;;;;;;;4.80;4.30;;;;;;;16.24;100.00;99738.06;5034353;28;20033;-83
2021/08/08 01:51:00;;;;;;;6.00;4.38;;;;;;;16.27;100.00;99740.53;5036633;28;20660;-83
2021/08/08 01:53:28;;;;;;;6.45;4.80;;;;;;;16.36;100.00;99746.28;5033761;28;20045;-83
2021/08/08 01:55:55;;;;;;;5.35;4.18;;;;;;;16.23;100.00;99741.69;5033698;28;20041;-83
2021/08/08 01:58:27;;;;;;;5.60;4.70;;;;;;;16.32;100.00;99737.63;5028615;28;20053;-83
2021/08/08 02:00:57;;;;;;;5.22;4.70;;;;;;;16.23;100.00;99741.69;5031555;28;20041;-84
2021/08/08 02:03:39;;;;;;;5.72;5.00;;;;;;;16.26;100.00;99753.97;5029997;28;20083;-83
2021/08/08 02:06:08;;;;;;;5.55;4.55;;;;;;;16.20;100.00;99755.16;5031612;28;20048;-83
2021/08/08 02:08:36;;;;;;;4.57;3.88;;;;;;;16.18;100.00;99746.41;5040564;28;20044;-83
2021/08/08 02:11:03;;;;;;;5.25;4.13;;;;;;;16.25;100.00;99747.78;5027062;28;20053;-83
2021/08/08 02:13:32;;;;;;;5.75;4.43;;;;;;;16.18;100.00;99751.75;5036022;28;20048;-83
2021/08/08 02:16:01;;;;;;;5.78;4.45;;;;;;;16.14;100.00;99742.19;5051728;28;20029;-84
2021/08/08 02:18:30;;;;;;;5.78;4.95;;;;;;;16.13;100.00;99739.63;5038612;28;20047;-84
2021/08/08 02:20:57;;;;;;;5.22;4.72;;;;;;;16.14;100.00;99744.84;5051865;28;20041;-84
2021/08/08 02:23:23;;;;;;;4.60;3.80;;;;;;;16.09;100.00;99738.97;5067925;28;20044;-83
2021/08/08 02:25:51;;;;;;;6.63;4.50;;;;;;;16.11;100.00;99741.53;5051230;28;20092;-83
2021/08/08 02:28:18;;;;;;;4.95;4.45;;;;;;;16.12;100.00;99732.59;5049783;28;20041;-84
2021/08/08 02:30:45;;;;;;;6.68;4.50;;;;;;;16.09;100.00;99730.97;5023126;28;20154;-83
2021/08/08 02:33:11;;;;;;;6.18;4.40;;;;;;;16.07;100.00;99724.00;5031210;28;20041;-84
2021/08/08 02:35:38;;;;;;;4.72;3.80;;;;;;;16.05;100.00;99726.75;5033514;28;20037;-83
2021/08/08 02:38:05;;;;;;;4.80;4.28;;;;;;;16.05;100.00;99724.94;5046029;28;20081;-84
2021/08/08 02:40:31;;;;;;;7.45;4.57;;;;;;;16.03;100.00;99723.31;5035107;28;20041;-84
2021/08/08 02:42:59;;;;;;;5.10;4.60;;;;;;;16.00;100.00;99723.50;5070071;28;20041;-84
2021/08/08 02:45:25;;;;;;;5.10;3.60;;;;;;;15.92;100.00;99720.41;5070777;28;20036;-83
2021/08/08 02:47:52;;;;;;;4.95;4.30;;;;;;;15.87;100.00;99722.47;5033607;28;20037;-84
2021/08/08 02:50:19;;;;;;;4.78;3.72;;;;;;;15.84;100.00;99734.19;5051248;28;20053;-84
2021/08/08 02:52:46;;;;;;;4.63;4.10;;;;;;;15.81;100.00;99739.69;5049932;28;20483;-84
2021/08/08 02:55:12;;;;;;;5.63;4.20;;;;;;;15.77;100.00;99749.63;5035435;28;20225;-85
2021/08/08 02:57:39;;;;;;;5.00;4.45;;;;;;;15.79;100.00;99752.22;5036194;28;20033;-83
2021/08/08 03:00:06;;;;;;;5.13;4.07;;;;;;;15.77;100.00;99757.63;5065665;28;20032;-84
2021/08/08 03:02:34;;;;;;;4.10;3.65;;;;;;;15.75;100.00;99751.53;5053452;28;20025;-83
2021/08/08 03:05:01;;;;;;;5.13;3.95;;;;;;;15.76;100.00;99758.56;5053003;28;20041;-83
2021/08/08 03:07:27;;;;;;;5.45;4.47;;;;;;;15.72;100.00;99767.69;5029051;28;20064;-84
2021/08/08 03:09:54;;;;;;;4.53;3.95;;;;;;;15.69;100.00;99757.19;5035402;28;20113;-83
2021/08/08 03:12:21;;;;;;;4.65;3.83;;;;;;;15.66;100.00;99762.69;5049624;28;20113;-83
2021/08/08 03:14:48;;;;;;;6.75;4.65;;;;;;;15.68;100.00;99779.44;5069659;28;20040;-84
2021/08/08 03:17:15;;;;;;;5.82;4.95;;;;;;;15.67;100.00;99779.53;5069096;28;20025;-84
2021/08/08 03:19:41;;;;;;;5.03;4.50;;;;;;;15.68;100.00;99781.25;5040036;28;20045;-84
2021/08/08 03:22:08;;;;;;;5.38;4.45;;;;;;;15.64;100.00;99785.03;5041849;28;20053;-84
2021/08/08 03:24:35;;;;;;;5.25;4.57;;;;;;;15.67;100.00;99791.03;5022911;28;20093;-84
2021/08/08 03:27:02;;;;;;;4.25;3.83;;;;;;;15.65;100.00;99789.41;5070067;28;20100;-84
2021/08/08 03:29:28;;;;;;;6.03;4.45;;;;;;;15.66;100.00;99789.34;5033766;28;20140;-84
2021/08/08 03:31:55;;;;;;;5.85;4.38;;;;;;;15.70;100.00;99790.00;5051323;28;20037;-84
2021/08/08 03:34:22;;;;;;;5.47;4.72;;;;;;;15.68;100.00;99791.91;5068979;28;20048;-84
2021/08/08 03:36:49;;;;;;;4.82;4.25;;;;;;;15.68;100.00;99787.44;5053286;28;20041;-83
2021/08/08 03:39:17;;;;;;;5.78;4.53;;;;;;;15.70;100.00;99798.00;5052982;28;20049;-84
2021/08/08 03:41:44;;;;;;;6.78;4.50;;;;;;;15.70;100.00;99793.53;5036407;28;20056;-84
2021/08/08 03:44:10;;;;;;;6.85;4.70;;;;;;;15.74;100.00;99805.75;5053352;28;20059;-84
2021/08/08 03:46:37;;;;;;;8.77;4.78;;;;;;;15.80;100.00;99804.53;5053044;28;20044;-83
2021/08/08 03:49:04;;;;;;;6.10;4.78;;;;;;;15.79;100.00;99799.28;5027967;28;20041;-83
2021/08/08 03:51:30;;;;;;;5.07;4.47;;;;;;;15.79;100.00;99812.59;5051168;28;20039;-84
2021/08/08 03:53:59;;;;;;;6.55;4.40;;;;;;;15.83;100.00;99816.84;5070247;28;20048;-84
2021/08/08 03:56:26;;;;;;;8.00;4.90;;;;;;;15.85;100.00;99814.94;5034622;28;20106;-84
2021/08/08 03:58:52;;;;;;;5.78;4.55;;;;;;;15.85;100.00;99810.47;5056083;28;20556;-85
2021/08/08 04:01:19;;;;;;;6.82;5.05;;;;;;;15.88;100.00;99817.41;5025560;28;20037;-82
2021/08/08 04:03:46;;;;;;;7.55;5.15;;;;;;;15.90;100.00;99824.41;5032822;28;20041;-83
2021/08/08 04:06:13;;;;;;;6.30;5.10;;;;;;;15.88;100.00;99823.59;5014724;28;20037;-82
2021/08/08 04:08:39;;;;;;;7.40;4.65;;;;;;;16.00;100.00;99830.94;5012406;28;20049;-82
2021/08/08 04:11:13;;;;;;;5.82;4.75;;;;;;;16.01;100.00;99831.78;5006361;28;20045;-83
2021/08/08 04:13:40;;;;;;;5.90;4.65;;;;;;;15.97;100.00;99831.06;5032164;28;20041;-85
2021/08/08 04:16:07;;;;;;;6.38;4.68;;;;;;;16.04;100.00;99839.59;5008291;28;20041;-82
2021/08/08 04:18:34;;;;;;;8.00;5.18;;;;;;;16.07;100.00;99851.91;5035363;28;20106;-85
2021/08/08 04:21:00;;;;;;;6.80;5.03;;;;;;;16.07;100.00;99854.56;5017723;28;20555;-83
2021/08/08 04:23:27;;;;;;;5.60;4.80;;;;;;;16.08;100.00;99840.31;5027072;28;20049;-82
2021/08/08 04:25:54;;;;;;;5.72;4.45;;;;;;;16.09;100.00;99847.34;5010472;28;20494;-86
2021/08/08 04:28:21;;;;;;;5.53;4.30;;;;;;;16.09;100.00;99855.34;5039238;28;20036;-82
2021/08/08 04:30:47;;;;;;;6.35;4.38;;;;;;;16.11;100.00;99848.97;5013942;28;20045;-82
2021/08/08 04:33:14;;;;;;;6.00;4.35;;;;;;;16.13;100.00;99854.22;5031339;28;20116;-82
2021/08/08 04:35:41;;;;;;;5.50;4.10;;;;;;;16.11;100.00;99858.78;5017405;28;20041;-83
2021/08/08 04:38:07;;;;;;;4.63;3.80;;;;;;;16.07;100.00;99857.25;5013775;28;20521;-81
2021/08/08 04:40:34;;;;;;;4.72;4.05;;;;;;;16.08;100.00;99859.81;5032141;28;20083;-81
2021/08/08 04:43:03;;;;;;;5.18;4.25;;;;;;;16.12;100.00;99858.69;5029669;28;20045;-81
2021/08/08 04:45:30;;;;;;;5.55;4.22;;;;;;;16.14;100.00;99859.44;5030803;28;20087;-82
2021/08/08 04:47:56;;;;;;;7.85;4.50;;;;;;;16.12;100.00;99861.34;5009287;28;20067;-82
2021/08/08 04:50:23;;;;;;;4.97;3.85;;;;;;;16.05;100.00;99870.63;5016706;28;20075;-82
2021/08/08 04:52:50;;;;;;;5.22;3.90;;;;;;;15.98;100.00;99867.47;5022927;28;20037;-81
2021/08/08 04:55:17;;;;;;;6.53;4.05;;;;;;;15.95;100.00;99872.94;5029120;28;20033;-82
2021/08/08 04:57:44;;;;;;;7.10;4.20;;;;;;;15.99;100.00;99873.66;5025069;28;20561;-82
2021/08/08 05:00:11;;;;;;;4.30;3.53;;;;;;;16.01;100.00;99867.28;5029906;28;20121;-82
2021/08/08 05:02:44;;;;;;;6.88;4.45;;;;;;;16.15;100.00;99871.84;5010581;28;20048;-82
2021/08/08 05:05:11;;;;;;;4.60;4.10;;;;;;;16.17;100.00;99871.75;5016269;28;20046;-83
2021/08/08 05:07:39;;;;;;;6.45;3.72;;;;;;;16.11;100.00;99872.09;5018136;28;20053;-83
2021/08/08 05:10:10;;;;;;;5.63;4.30;;;;;;;16.32;100.00;99877.09;5017014;28;20049;-83
2021/08/08 05:12:37;;;;;;;6.05;4.00;;;;;;;16.42;100.00;99877.44;5032201;28;20445;-82
2021/08/08 05:15:05;;;;;;;4.43;3.97;;;;;;;16.53;100.00;99874.13;5032922;28;20033;-83
2021/08/08 05:17:31;;;;;;;6.60;4.28;;;;;;;16.49;100.00;99885.94;5021588;28;20045;-83
2021/08/08 05:19:58;;;;;;;4.70;3.70;;;;;;;16.43;100.00;99878.28;5032955;28;20612;-82
2021/08/08 05:22:25;;;;;;;5.60;3.60;;;;;;;16.40;100.00;99886.47;5016975;28;20049;-83
2021/08/08 05:24:53;;;;;;;4.72;4.13;;;;;;;16.41;100.00;99880.19;5019403;28;20037;-81
2021/08/08 05:27:20;;;;;;;6.25;4.15;;;;;;;16.32;100.00;99886.91;5049901;28;20041;-83
2021/08/08 05:29:46;;;;;;;5.65;3.70;;;;;;;16.32;100.00;99887.75;5031024;28;20049;-82
2021/08/08 05:32:13;;;;;;;5.13;4.03;;;;;;;16.29;100.00;99890.56;5032212;28;20406;-82
2021/08/08 05:34:40;;;;;;;5.30;4.00;;;;;;;16.36;100.00;99890.22;5014859;28;20079;-81
2021/08/08 05:37:06;;;;;;;6.55;4.30;;;;;;;16.47;100.00;99890.47;5030147;28;20493;-81
2021/08/08 05:39:33;;;;;;;6.13;4.13;;;;;;;16.42;100.00;99888.09;5016132;28;20485;-81
2021/08/08 05:42:00;;;;;;;4.95;3.78;;;;;;;16.47;100.00;99896.66;5013637;28;20091;-83
2021/08/08 05:44:26;;;;;;;4.85;3.65;;;;;;;16.50;100.00;99899.19;5032173;28;20048;-83
2021/08/08 05:46:53;;;;;;;5.15;3.88;;;;;;;16.49;100.00;99900.13;5017004;28;20036;-82
2021/08/08 05:49:19;;;;;;;6.18;4.18;;;;;;;16.58;100.00;99896.94;5025434;28;20461;-82
2021/08/08 05:51:46;;;;;;;5.30;2.92;;;;;;;16.63;100.00;99903.78;5030055;28;20080;-81
2021/08/08 05:54:13;;;;;;;4.85;3.58;;;;;;;16.57;100.00;99903.22;5011781;28;20103;-82
2021/08/08 05:56:39;;;;;;;4.70;3.83;;;;;;;16.59;100.00;99909.31;5007847;28;20041;-82
2021/08/08 05:59:06;;;;;;;4.18;3.50;;;;;;;16.80;100.00;99922.38;5026442;28;20044;-82
2021/08/08 06:01:33;;;;;;;4.55;2.95;;;;;;;17.12;100.00;99924.03;5031397;28;20391;-83
2021/08/08 06:04:00;;;;;;;4.13;2.83;;;;;;;17.19;100.00;99926.34;5012980;28;20041;-81
2021/08/08 06:06:27;;;;;;;5.00;3.47;;;;;;;17.19;100.00;99939.69;5029844;28;20041;-82
2021/08/08 06:08:53;;;;;;;3.70;2.70;;;;;;;17.13;100.00;99939.09;5025879;28;20033;-81
2021/08/08 06:11:20;;;;;;;3.55;2.75;;;;;;;17.08;100.00;99938.53;5031435;28;20044;-82
2021/08/08 06:13:47;;;;;;;4.32;3.05;;;;;;;17.10;100.00;99951.78;5031415;28;20053;-82
2021/08/08 06:16:13;;;;;;;3.63;2.65;;;;;;;17.25;100.00;99950.03;5027449;28;20037;-81
2021/08/08 06:18:40;;;;;;;3.25;2.40;;;;;;;17.36;100.00;99948.41;5025804;28;20041;-82
2021/08/08 06:21:07;;;;;;;9.57;3.42;;;;;;;17.32;100.00;99952.25;5030699;28;20041;-82
2021/08/08 06:23:34;;;;;;;4.47;2.33;;;;;;;17.44;100.00;99955.97;5022743;28;20049;-82
2021/08/08 06:26:00;;;;;;;6.70;2.95;;;;;;;18.29;100.00;99952.50;5022731;28;20056;-82
2021/08/08 06:28:27;;;;;;;3.33;2.20;;;;;;;20.00;84.92;99948.22;5032629;28;20041;-82
2021/08/08 06:30:53;;;;;;;4.65;2.47;;;;;;;21.59;76.06;99948.91;5024897;28;20053;-82
2021/08/08 06:33:21;;;;;;;3.38;1.92;;;;;;;22.86;67.85;99946.84;5032334;28;20041;-82
2021/08/08 06:35:48;;;;;;;3.97;1.90;;;;;;;23.37;65.49;99946.13;5012481;28;20041;-82
2021/08/08 06:38:15;;;;;;;2.65;2.13;;;;;;;23.66;66.51;99950.94;5012196;28;20148;-82
2021/08/08 06:40:41;;;;;;;3.05;1.55;;;;;;;23.77;63.41;99948.16;5010410;28;20048;-83
2021/08/08 06:43:08;;;;;;;3.35;1.70;;;;;;;23.79;65.14;99954.25;5104723;22;20052;-83
2021/08/08 06:45:38;;;;;;;4.38;2.10;;;;;;;23.59;65.00;99947.88;5022445;28;20045;-83
2021/08/08 06:48:04;;;;;;;2.70;1.80;;;;;;;22.57;66.89;99951.91;5020992;28;20045;-84
2021/08/08 06:50:31;;;;;;;3.67;1.77;;;;;;;21.79;68.85;99954.59;5024407;28;20489;-84
2021/08/08 06:52:58;;;;;;;2.42;1.50;;;;;;;21.49;71.56;99958.66;5025587;28;20682;-83
2021/08/08 06:55:25;;;;;;;2.22;1.60;;;;;;;21.34;70.36;99971.44;5014053;28;20122;-83
2021/08/08 06:57:52;;;;;;;3.05;2.00;;;;;;;21.27;73.73;99972.91;5012312;28;20042;-83
2021/08/08 07:00:19;;;;;;;2.40;1.88;;;;;;;21.40;76.07;99975.50;5013350;28;20044;-82
2021/08/08 07:03:06;;;;;;;3.55;1.70;;;;;;;21.24;73.64;99988.34;5028928;28;20040;-84
2021/08/08 07:05:33;;;;;;;2.85;1.70;;;;;;;20.98;71.10;99979.56;5012117;28;20552;-83
2021/08/08 07:08:00;;;;;;;3.10;1.83;;;;;;;20.99;73.99;99978.56;5032361;28;20032;-83
2021/08/08 07:10:27;;;;;;;3.03;1.50;;;;;;;20.87;74.27;99977.69;5014012;28;20048;-82
2021/08/08 07:12:54;;;;;;;2.92;1.60;;;;;;;20.97;74.23;99972.47;5015873;28;20048;-83
2021/08/08 07:15:20;;;;;;;3.50;1.85;;;;;;;20.99;73.60;99979.44;5010887;28;20666;-84
2021/08/08 07:17:47;;;;;;;2.17;1.65;;;;;;;20.98;71.36;99980.41;5014371;28;20061;-83
2021/08/08 07:20:14;;;;;;;2.30;1.70;;;;;;;21.03;72.57;99983.63;5009588;28;20112;-83
2021/08/08 07:22:40;;;;;;;2.30;1.67;;;;;;;20.91;71.62;99975.59;5030727;28;20049;-84
2021/08/08 07:25:08;;;;;;;2.63;1.50;;;;;;;20.66;73.12;99990.81;5023243;28;20047;-81
2021/08/08 07:27:35;;;;;;;2.03;1.60;;;;;;;20.88;73.07;99994.63;5015013;28;20053;-84
2021/08/08 07:30:02;;;;;;;2.40;1.65;;;;;;;21.09;74.03;99988.50;5009572;28;20041;-83
2021/08/08 07:32:29;;;;;;;3.25;1.70;;;;;;;21.29;70.16;100000.50;5009870;28;20241;-82
2021/08/08 07:34:55;;;;;;;3.33;1.35;;;;;;;21.48;72.50;100007.16;5028546;28;20036;-83
2021/08/08 07:37:22;;;;;;;2.22;1.50;;;;;;;21.48;68.44;100001.78;5030220;28;20414;-81
2021/08/08 07:39:49;;;;;;;2.88;1.50;;;;;;;21.51;66.24;99996.16;5013509;28;20520;-83
2021/08/08 07:42:16;;;;;;;3.13;1.42;;;;;;;21.17;64.95;100006.75;5014946;28;20045;-81
2021/08/08 07:44:42;;;;;;;3.40;1.65;;;;;;;21.27;69.47;100015.88;5011360;28;20046;-83
2021/08/08 07:47:09;;;;;;;1.70;1.20;;;;;;;21.45;67.34;100007.41;5011075;28;20038;-83
2021/08/08 07:49:36;;;;;;;1.98;1.58;;;;;;;21.44;68.29;100013.72;5045315;28;20041;-84
2021/08/08 07:52:03;;;;;;;3.28;1.77;;;;;;;21.45;66.53;100015.47;5006305;28;20033;-83
2021/08/08 07:54:29;;;;;;;2.85;1.30;;;;;;;21.35;64.56;100010.75;5017965;28;20052;-83
2021/08/08 07:56:56;;;;;;;2.00;1.20;;;;;;;21.30;65.99;100020.16;5009811;28;20030;-84
2021/08/08 07:59:22;;;;;;;2.47;1.40;;;;;;;21.44;67.34;100024.47;5018763;28;20052;-82
2021/08/08 08:01:49;;;;;;;2.05;1.30;;;;;;;21.52;67.82;100022.91;5010797;28;20049;-83
2021/08/08 08:04:19;;;;;;;1.30;1.20;;;;;;;21.56;66.54;100026.25;5014368;28;20057;-82
2021/08/08 08:06:46;;;;;;;1.35;1.13;;;;;;;21.77;65.26;100027.28;5023703;28;20683;-82
2021/08/08 08:09:13;;;;;;;2.80;1.20;;;;;;;;;;5034395;28;20049;-82
2021/08/08 08:11:41;;;;;;;1.30;1.20;;;;;;;21.73;63.86;100036.56;5032026;28;20596;-82
2021/08/08 08:14:08;;;;;;;2.13;1.20;;;;;;;21.36;63.25;100049.28;5013509;28;20067;-82
2021/08/08 08:16:36;;;;;;;1.30;1.10;;;;;;;21.02;60.99;100049.06;5019209;28;20446;-82
2021/08/08 08:19:02;;;;;;;1.63;1.13;;;;;;;21.07;64.95;100049.56;5026943;28;20133;-82
2021/08/08 08:21:29;;;;;;;2.13;1.50;;;;;;;20.92;63.30;100037.25;5033790;28;20051;-81
2021/08/08 08:23:56;;;;;;;1.77;1.30;;;;;;;21.18;63.99;100035.31;5017263;28;20041;-82
2021/08/08 08:26:22;;;;;;;2.35;1.45;;;;;;;21.58;65.36;100035.06;5050744;28;20090;-83
2021/08/08 08:28:49;;;;;;;3.45;1.40;;;;;;;21.67;63.42;100034.34;5035178;28;20506;-83
2021/08/08 08:31:16;;;;;;;2.35;1.40;;;;;;;21.71;61.89;100038.53;5047775;28;20041;-81
2021/08/08 08:33:43;;;;;;;2.00;1.48;;;;;;;21.78;61.21;100034.41;5016792;28;20048;-82
2021/08/08 08:36:09;;;;;;;2.13;1.33;;;;;;;21.51;59.77;100037.34;5024743;28;20037;-81
2021/08/08 08:38:36;;;;;;;2.08;1.40;;;;;;;21.20;61.64;100041.47;5030272;28;20045;-80
2021/08/08 08:41:04;;;;;;;2.25;1.45;;;;;;;20.99;61.89;100045.72;5049635;28;20056;-82
2021/08/08 08:43:30;;;;;;;2.22;1.30;;;;;;;21.28;63.91;100049.84;5015969;28;20456;-81
2021/08/08 08:45:57;;;;;;;2.00;1.20;;;;;;;21.57;61.57;100058.38;5032820;28;20037;-82
2021/08/08 08:48:24;;;;;;;1.98;1.25;;;;;;;21.96;61.94;100052.78;5018032;28;20302;-82
2021/08/08 08:50:53;;;;;;;2.15;1.13;;;;;;;22.13;61.28;100050.53;5009798;28;20055;-83
2021/08/08 08:53:21;;;;;;;2.75;1.42;;;;;;;22.06;59.16;100049.25;5024373;28;20371;-80
2021/08/08 08:55:47;;;;;;;1.60;1.10;;;;;;;22.37;60.11;100054.97;5022669;28;20045;-83
2021/08/08 08:58:15;;;;;;;1.20;1.10;;;;;;;22.27;56.68;100051.25;5031628;28;20049;-83
2021/08/08 09:00:42;;;;;;;1.20;1.00;;;;;;;22.05;56.88;100052.06;5022767;28;20041;-80
2021/08/08 09:03:09;;;;;;;1.73;1.20;;;;;;;21.87;59.35;100054.34;5014907;28;20153;-81
2021/08/08 09:05:36;;;;;;;1.30;1.05;;;;;;;21.49;57.54;100054.56;5026791;28;20068;-82
2021/08/08 09:08:04;;;;;;;3.28;1.30;;;;;;;21.55;59.99;100067.53;5024352;28;20144;-80
2021/08/08 09:10:31;;;;;;;2.45;1.20;;;;;;;21.42;58.99;100070.28;5018374;28;20144;-82
2021/08/08 09:12:59;;;;;;;1.55;1.20;;;;;;;21.53;62.48;100064.13;5034714;28;20067;-82
2021/08/08 09:15:33;;;;;;;2.38;1.30;;;;;;;22.05;60.71;100062.81;5029887;28;20045;-83
2021/08/08 09:18:29;;;;;;;1.38;1.10;;;;;;;22.37;55.87;100066.56;5051168;28;20106;-82
2021/08/08 09:20:57;;;;;;;2.08;1.20;;;;;;;22.58;58.72;100066.69;5023288;28;20045;-83
2021/08/08 09:23:33;;;;;;;2.30;1.10;;;;;;;22.51;58.62;100070.00;5023717;28;20053;-82
2021/08/08 09:26:00;;;;;;;1.60;1.42;;;;;;;22.64;59.11;100063.53;5031455;28;20049;-82
2021/08/08 09:28:30;;;;;;;1.38;1.27;;;;;;;22.75;58.42;100070.72;5034499;28;20041;-81
2021/08/08 09:30:58;;;;;;;1.95;1.10;;;;;;;22.82;57.03;100069.25;5016675;28;20045;-82
2021/08/08 09:33:25;;;;;;;2.95;1.30;;;;;;;23.06;56.46;100057.50;5034586;28;20141;-82
2021/08/08 09:35:53;;;;;;;1.83;1.42;;;;;;;23.10;56.64;100069.72;5017421;28;20563;-82
2021/08/08 09:38:21;;;;;;;1.60;1.48;;;;;;;23.12;54.64;100070.44;5034246;28;20075;-82
2021/08/08 09:41:01;;;;;;;1.48;1.38;;;;;;;22.85;54.63;100076.25;5012959;28;20046;-83
2021/08/08 09:43:29;;;;;;;1.60;1.30;;;;;;;22.26;55.32;100084.53;5032519;28;20382;-82
2021/08/08 09:45:56;;;;;;;2.05;1.23;;;;;;;21.93;54.63;100080.75;5019122;28;20103;-82
2021/08/08 09:48:35;;;;;;;2.13;1.60;;;;;;;21.75;57.17;100082.16;5026312;28;20502;-82
2021/08/08 09:51:06;;;;;;;2.95;1.60;;;;;;;21.60;58.23;100089.53;5012583;28;20502;-83
2021/08/08 09:53:33;;;;;;;3.05;1.40;;;;;;;21.66;58.66;100090.91;5032461;28;20510;-83
2021/08/08 09:56:00;;;;;;;2.58;1.77;;;;;;;21.76;57.54;100087.41;5031541;28;20041;-82
2021/08/08 09:58:27;;;;;;;1.88;1.65;;;;;;;21.80;58.11;100091.59;5034536;28;20065;-80
2021/08/08 10:00:58;;;;;;;3.72;1.50;;;;;;;21.72;58.96;100106.59;5025825;28;20053;-81
2021/08/08 10:03:26;;;;;;;2.85;1.33;;;;;;;21.43;58.65;100106.06;5027404;28;20621;-85
2021/08/08 10:05:55;;;;;;;3.38;1.50;;;;;;;21.14;58.20;100108.19;5028890;28;20063;-82
2021/08/08 10:08:24;;;;;;;2.33;1.50;;;;;;;21.15;60.66;100116.16;5042871;28;20072;-82
2021/08/08 10:10:54;;;;;;;2.88;1.50;;;;;;;21.14;60.94;100118.94;4999009;28;20536;-83
2021/08/08 10:13:47;;;;;;;1.88;1.60;;;;;;;21.19;59.63;100116.75;5009491;28;20132;-85
2021/08/08 10:16:16;;;;;;;1.83;1.27;;;;;;;21.28;60.12;100106.25;5010716;28;20037;-85
2021/08/08 10:18:46;;;;;;;2.00;1.55;;;;;;;21.32;59.11;100106.88;5025909;28;20117;-84
2021/08/08 10:21:13;;;;;;;1.90;1.48;;;;;;;21.25;61.14;100119.88;5006767;28;20044;-84
2021/08/08 10:23:40;;;;;;;1.77;1.27;;;;;;;21.33;59.26;100116.66;5014717;28;20102;-82
2021/08/08 10:26:08;;;;;;;2.47;1.48;;;;;;;21.29;60.04;100128.63;5031669;28;20044;-86
2021/08/08 10:28:35;;;;;;;2.05;1.50;;;;;;;21.17;59.64;100126.78;5011096;28;20553;-85
2021/08/08 10:31:03;;;;;;;1.95;1.35;;;;;;;21.32;60.11;100123.84;5013589;28;20047;-83
2021/08/08 10:33:29;;;;;;;1.90;1.77;;;;;;;21.86;58.11;100126.09;5016138;28;20045;-82
2021/08/08 10:35:56;;;;;;;2.53;1.65;;;;;;;22.34;56.33;100130.53;5024336;28;20037;-83
2021/08/08 10:38:23;;;;;;;2.50;1.40;;;;;;;22.51;52.41;100129.22;5049100;28;20071;-82
2021/08/08 10:40:50;;;;;;;3.03;1.30;;;;;;;22.93;53.25;100128.53;5030718;28;20052;-84
2021/08/08 10:43:27;;;;;;;1.58;1.30;;;;;;;23.42;55.02;100124.53;5016678;28;20059;-84
2021/08/08 10:46:10;;;;;;;1.95;1.35;;;;;;;23.76;53.24;100129.84;5030818;28;20048;-83
2021/08/08 10:48:39;;;;;;;2.95;1.40;;;;;;;23.66;49.53;100132.47;5027833;28;20073;-81
2021/08/08 10:51:24;;;;;;;1.38;1.10;;;;;;;23.83;51.92;100139.16;5015673;28;20040;-82
2021/08/08 10:54:07;;;;;;;1.92;1.10;;;;;;;23.53;51.01;100135.28;5001544;28;20049;-83
2021/08/08 10:56:39;;;;;;;1.50;1.30;;;;;;;23.90;50.14;100144.91;5013900;28;20042;-84
2021/08/08 10:59:17;;;;;;;1.47;1.20;;;;;;;24.22;49.39;100150.28;5047639;28;20056;-83
2021/08/08 11:01:46;;;;;;;2.58;1.20;;;;;;;24.34;48.85;100136.59;5031421;28;20387;-85
2021/08/08 11:04:15;;;;;;;1.40;1.30;;;;;;;24.60;49.81;100146.97;5013591;28;20613;-88
2021/08/08 11:06:42;;;;;;;2.35;1.30;;;;;;;24.76;46.95;100154.59;5016625;28;20052;-82
2021/08/08 11:09:09;;;;;;;2.05;1.45;;;;;;;24.85;46.58;100140.28;5012926;28;20817;-82
2021/08/08 11:11:38;;;;;;;2.33;1.63;;;;;;;24.92;46.47;100149.56;5017866;28;20052;-87
2021/08/08 11:14:13;;;;;;;1.55;1.23;;;;;;;24.53;47.16;100159.28;5013704;28;20088;-84
2021/08/08 11:16:42;;;;;;;2.03;1.30;;;;;;;24.36;48.10;100163.44;5033606;28;20041;-85
2021/08/08 11:19:13;;;;;;;1.30;1.20;;;;;;;24.12;49.12;100166.38;5007109;28;20041;-82
2021/08/08 11:21:40;;;;;;;1.75;1.30;;;;;;;23.70;49.92;100162.72;5027838;28;20167;-82
2021/08/08 11:24:10;;;;;;;2.78;1.30;;;;;;;23.55;51.26;100175.63;5032057;28;20073;-85
2021/08/08 11:26:38;;;;;;;1.90;1.40;;;;;;;23.82;49.18;100176.06;5028831;28;20064;-81
2021/08/08 11:29:06;;;;;;;2.03;1.40;;;;;;;24.13;49.24;100168.06;5045314;28;20482;-81
2021/08/08 11:31:38;;;;;;;2.45;1.42;;;;;;;24.52;51.64;100163.84;5022806;28;20055;-81